Time;durP1;ratioP1;P1;durP2;ratioP2;P2;SDS_P1;SDS_P2;PMS_P1;PMS_P2;Temp;Humidity;BMP_temperature;BMP_pressure;BME280_temperature;BME280_humidity;BME280_pressure;Samples;Min_cycle;Max_cycle;Signal;HPM_P1;HPM_P2
2023/04/02 00:01:51;;;;;;;3.30;1.45;;;;;;;9.76;62.47;98137.31;4250726;33;33729;-85
2023/04/02 00:04:21;;;;;;;3.22;1.50;;;;;;;9.56;63.43;98137.31;4273879;33;33676;-85
2023/04/02 00:07:14;;;;;;;3.55;1.92;;;;;;;9.60;63.51;98143.38;4264258;33;34085;-85
2023/04/02 00:09:41;;;;;;;3.08;1.50;;;;;;;10.05;61.90;98137.28;4261376;33;33621;-85
2023/04/02 00:12:17;;;;;;;4.35;1.50;;;;;;;10.04;61.38;98140.75;4265394;33;33451;-83
2023/04/02 00:14:48;;;;;;;3.33;1.60;;;;;;;10.18;60.97;98140.72;4259839;33;34094;-84
2023/04/02 00:17:16;;;;;;;3.03;1.52;;;;;;;10.03;61.27;98143.31;4258729;33;34146;-84
2023/04/02 00:19:51;;;;;;;4.25;1.65;;;;;;;9.81;62.49;98147.66;4270582;33;34947;-85
2023/04/02 00:22:24;;;;;;;4.15;1.70;;;;;;;10.18;60.82;98138.12;4259561;33;33827;-85
2023/04/02 00:24:53;;;;;;;3.12;1.67;;;;;;;10.03;60.80;98141.59;4262127;33;34743;-83
2023/04/02 00:27:21;;;;;;;3.75;1.50;;;;;;;10.34;59.88;98149.31;4255953;33;34121;-86
2023/04/02 00:29:51;;;;;;;3.87;1.52;;;;;;;10.28;59.92;98144.19;4261274;33;33697;-84
2023/04/02 00:32:32;;;;;;;3.33;1.40;;;;;;;10.12;60.08;98146.78;4271370;33;33618;-84
2023/04/02 00:35:00;;;;;;;5.80;2.12;;;;;;;10.28;59.62;98144.19;4256935;33;35455;-85
2023/04/02 00:37:41;;;;;;;2.70;1.30;;;;;;;10.04;60.72;98145.94;4253916;33;34121;-84
2023/04/02 00:40:16;;;;;;;2.80;1.42;;;;;;;10.19;60.27;98142.41;4247787;33;32907;-86
2023/04/02 00:42:45;;;;;;;2.72;1.50;;;;;;;10.38;59.32;98148.44;4251967;33;33640;-85
2023/04/02 00:45:23;;;;;;;3.87;1.60;;;;;;;10.01;60.54;98158.88;4267087;33;34012;-85
2023/04/02 00:47:51;;;;;;;3.87;1.77;;;;;;;10.07;60.55;98155.41;4257745;33;34928;-86
2023/04/02 00:50:31;;;;;;;3.60;1.58;;;;;;;10.22;59.79;98156.22;4259142;33;33937;-84
2023/04/02 00:52:59;;;;;;;3.12;1.65;;;;;;;9.77;61.11;98161.47;4254259;33;33540;-84
2023/04/02 00:55:34;;;;;;;2.50;1.35;;;;;;;9.87;60.83;98160.59;4259855;33;34771;-84
2023/04/02 00:58:03;;;;;;;5.18;1.75;;;;;;;9.51;62.16;98162.34;4271720;33;34052;-85
2023/04/02 01:00:35;;;;;;;3.70;1.75;;;;;;;9.91;61.37;98149.37;4246007;33;35526;-86
2023/04/02 01:03:18;;;;;;;2.42;1.37;;;;;;;9.94;61.53;98149.37;4261380;33;33693;-85
2023/04/02 01:05:49;;;;;;;3.03;1.70;;;;;;;9.61;62.68;98155.44;4266186;33;33657;-86
2023/04/02 01:08:38;;;;;;;3.83;1.67;;;;;;;9.72;63.47;98149.37;4267034;33;34173;-85
2023/04/02 01:11:49;;;;;;;2.95;1.75;;;;;;;9.50;64.33;98150.25;4265624;33;34198;-85
2023/04/02 01:14:40;;;;;;;2.90;1.77;;;;;;;9.66;64.03;98146.81;4261157;33;34597;-84
2023/04/02 01:17:31;;;;;;;3.87;1.80;;;;;;;9.90;63.45;98158.88;4266527;33;34314;-85
2023/04/02 01:20:14;;;;;;;4.28;2.00;;;;;;;9.85;63.47;98155.44;4255652;33;33645;-84
2023/04/02 01:22:56;;;;;;;4.85;2.40;;;;;;;9.97;63.02;98155.44;4259874;33;34333;-84
2023/04/02 01:25:29;;;;;;;2.83;1.62;;;;;;;9.98;63.08;98156.28;4273127;33;34422;-85
2023/04/02 01:28:06;;;;;;;5.18;1.80;;;;;;;10.02;62.97;98163.19;4250785;33;33770;-84
2023/04/02 01:30:35;;;;;;;4.65;1.85;;;;;;;10.21;62.27;98161.44;4258967;33;34824;-86
2023/04/02 01:33:04;;;;;;;3.58;1.80;;;;;;;10.06;62.58;98164.91;4249255;33;34880;-83
2023/04/02 01:35:35;;;;;;;3.35;1.75;;;;;;;9.81;63.97;98166.66;4256754;33;33216;-85
2023/04/02 01:38:10;;;;;;;2.85;1.80;;;;;;;9.80;64.00;98162.34;4266156;33;34082;-85
2023/04/02 01:40:45;;;;;;;3.00;1.77;;;;;;;9.79;64.25;98163.19;4269954;33;34038;-83
2023/04/02 01:43:27;;;;;;;3.58;2.00;;;;;;;10.09;63.19;98162.31;4261122;33;34500;-84
2023/04/02 01:45:59;;;;;;;3.45;1.80;;;;;;;9.96;63.20;98158.00;4260329;33;33613;-85
2023/04/02 01:48:29;;;;;;;4.95;2.30;;;;;;;9.94;63.48;98160.59;4248213;33;33753;-86
2023/04/02 01:50:58;;;;;;;4.50;2.20;;;;;;;9.94;63.90;98168.38;4266339;33;33864;-86
2023/04/02 01:53:27;;;;;;;4.57;2.10;;;;;;;9.95;63.65;98174.41;4254357;33;33738;-85
2023/04/02 01:55:58;;;;;;;4.20;1.90;;;;;;;10.15;62.70;98164.91;4267383;33;33865;-84
2023/04/02 01:58:28;;;;;;;3.03;1.58;;;;;;;10.51;61.67;98176.06;4259959;33;33983;-85
2023/04/02 02:01:00;;;;;;;2.70;1.60;;;;;;;10.63;60.56;98178.63;4257179;33;33932;-85
2023/04/02 02:03:29;;;;;;;3.28;1.67;;;;;;;10.34;60.48;98180.41;4260092;33;33958;-86
2023/04/02 02:05:57;;;;;;;3.65;1.67;;;;;;;10.41;60.29;98177.81;4248890;33;33589;-84
2023/04/02 02:08:33;;;;;;;3.03;1.65;;;;;;;10.71;59.32;98187.22;4246980;33;34427;-85
2023/04/02 02:11:02;;;;;;;5.00;1.60;;;;;;;10.37;59.89;98186.47;4258961;33;34163;-86
2023/04/02 02:13:30;;;;;;;2.83;1.52;;;;;;;10.37;59.89;98185.59;4262919;33;34352;-84
2023/04/02 02:15:59;;;;;;;3.62;1.50;;;;;;;10.53;59.42;98182.13;4253601;33;33569;-86
2023/04/02 02:18:27;;;;;;;3.55;1.70;;;;;;;10.37;59.70;98180.41;4250183;33;33989;-85
2023/04/02 02:20:57;;;;;;;2.45;1.40;;;;;;;10.23;59.83;98183.03;4271100;33;33699;-85
2023/04/02 02:23:27;;;;;;;2.80;1.60;;;;;;;10.29;59.94;98192.53;4262383;33;34687;-85
2023/04/02 02:25:55;;;;;;;2.60;1.40;;;;;;;10.04;60.26;98189.06;4259849;33;33206;-85
2023/04/02 02:28:26;;;;;;;4.55;1.85;;;;;;;10.22;59.87;98187.31;4262486;33;33642;-85
2023/04/02 02:31:04;;;;;;;4.18;1.90;;;;;;;9.92;60.84;98192.53;4245895;33;34177;-85
2023/04/02 02:33:36;;;;;;;3.15;1.58;;;;;;;10.05;60.66;98186.50;4246211;33;34902;-84
2023/04/02 02:36:32;;;;;;;2.87;1.67;;;;;;;10.05;60.63;98186.50;4257116;33;34486;-86
2023/04/02 02:39:11;;;;;;;3.65;1.52;;;;;;;9.83;61.08;98197.72;4255941;33;34132;-85
2023/04/02 02:41:45;;;;;;;5.30;1.77;;;;;;;9.98;60.50;98193.41;4257506;33;34098;-86
2023/04/02 02:44:18;;;;;;;3.05;1.58;;;;;;;10.09;60.36;98197.72;4264226;33;34966;-84
2023/04/02 02:47:13;;;;;;;2.50;1.37;;;;;;;10.01;60.48;98196.84;4248928;33;33836;-85
2023/04/02 02:49:48;;;;;;;2.67;1.25;;;;;;;9.95;60.68;98193.38;4268105;33;35138;-84
2023/04/02 02:52:20;;;;;;;2.37;1.30;;;;;;;10.01;60.45;98194.28;4272883;33;33925;-84
2023/04/02 02:54:57;;;;;;;3.65;1.65;;;;;;;9.89;60.76;98189.97;4247763;33;34307;-85
2023/04/02 02:57:34;;;;;;;2.72;1.30;;;;;;;10.12;60.31;98180.44;4264358;33;33392;-83
2023/04/02 03:00:05;;;;;;;3.40;1.62;;;;;;;9.87;60.90;98178.72;4249777;33;34435;-84
2023/04/02 03:02:35;;;;;;;3.55;1.62;;;;;;;9.79;61.61;98185.63;4254430;33;34917;-84
2023/04/02 03:05:06;;;;;;;2.47;1.58;;;;;;;9.44;63.61;98184.75;4259948;33;34191;-83
2023/04/02 03:07:36;;;;;;;3.05;1.50;;;;;;;9.66;63.10;98190.81;4273276;33;33303;-85
2023/04/02 03:10:42;;;;;;;3.42;1.67;;;;;;;9.67;63.21;98178.75;4258623;33;33756;-85
2023/04/02 03:13:21;;;;;;;2.62;1.70;;;;;;;9.63;63.32;98183.03;4257517;33;33777;-85
2023/04/02 03:15:54;;;;;;;3.20;1.67;;;;;;;9.47;64.20;98177.00;4249022;33;33545;-85
2023/04/02 03:18:40;;;;;;;2.95;1.65;;;;;;;9.62;64.07;98186.50;4267102;33;33706;-85
2023/04/02 03:21:21;;;;;;;2.58;1.37;;;;;;;9.16;66.11;98183.81;4259949;33;33588;-84
2023/04/02 03:24:09;;;;;;;3.37;1.60;;;;;;;9.80;63.93;98185.63;4258076;33;34228;-84
2023/04/02 03:26:44;;;;;;;4.68;1.42;;;;;;;9.82;63.19;98183.06;4256911;33;34356;-84
2023/04/02 03:29:18;;;;;;;3.85;1.50;;;;;;;9.85;62.71;98183.91;4263292;33;33824;-84
2023/04/02 03:32:04;;;;;;;3.15;1.65;;;;;;;9.85;62.48;98190.78;4258378;33;33777;-84
2023/04/02 03:34:56;;;;;;;3.03;1.65;;;;;;;10.03;62.15;98190.78;4258429;33;34810;-84
2023/04/02 03:37:28;;;;;;;2.97;1.75;;;;;;;9.65;63.45;98196.84;4243615;33;34134;-84
2023/04/02 03:40:14;;;;;;;3.65;1.65;;;;;;;9.50;65.08;98202.00;4268445;33;33745;-85
2023/04/02 03:42:46;;;;;;;2.50;1.48;;;;;;;9.88;63.62;98195.97;4258459;33;33796;-85
2023/04/02 03:45:21;;;;;;;2.97;1.50;;;;;;;9.90;62.61;98196.84;4261267;33;34051;-86
2023/04/02 03:48:02;;;;;;;4.57;1.73;;;;;;;9.81;62.24;98207.19;4247599;33;35185;-84
2023/04/02 03:50:45;;;;;;;3.05;1.35;;;;;;;9.93;62.40;98207.22;4250919;33;34365;-85
2023/04/02 03:53:12;;;;;;;2.12;1.40;;;;;;;10.00;61.87;98216.72;4258521;33;33748;-84
2023/04/02 03:55:41;;;;;;;3.83;1.67;;;;;;;9.60;63.07;98216.69;4250277;33;34095;-84
2023/04/02 03:58:38;;;;;;;2.22;1.30;;;;;;;9.74;62.63;98214.12;4267775;33;34225;-85
2023/04/02 04:01:17;;;;;;;2.53;1.60;;;;;;;9.78;62.38;98214.97;4266917;33;33655;-84
2023/04/02 04:04:09;;;;;;;3.30;1.50;;;;;;;9.73;62.30;98222.72;4258101;33;34073;-83
2023/04/02 04:06:40;;;;;;;2.62;1.30;;;;;;;9.83;61.69;98218.44;4245318;33;34212;-85
2023/04/02 04:09:11;;;;;;;2.58;1.40;;;;;;;9.46;63.17;98213.19;4254896;33;33994;-83
2023/04/02 04:11:44;;;;;;;2.90;1.75;;;;;;;9.71;62.43;98222.72;4263862;33;33391;-84
2023/04/02 04:14:17;;;;;;;2.60;1.70;;;;;;;9.71;61.89;98230.50;4255471;33;34015;-85
2023/04/02 04:16:54;;;;;;;2.90;1.50;;;;;;;9.63;62.30;98229.62;4270220;33;34214;-86
2023/04/02 04:19:23;;;;;;;2.80;1.58;;;;;;;9.92;61.36;98232.22;4256143;33;34141;-84
2023/04/02 04:21:55;;;;;;;2.75;1.45;;;;;;;9.87;61.22;98235.69;4271705;33;33661;-84
2023/04/02 04:24:26;;;;;;;2.87;1.70;;;;;;;9.78;61.40;98230.50;4259315;33;34035;-83
2023/04/02 04:27:02;;;;;;;2.40;1.50;;;;;;;9.69;61.94;98233.94;4245765;33;34202;-85
2023/04/02 04:29:46;;;;;;;2.33;1.40;;;;;;;9.77;61.66;98233.94;4265634;33;34191;-85
2023/04/02 04:32:34;;;;;;;2.30;1.60;;;;;;;9.85;61.54;98233.09;4257535;33;34409;-83
2023/04/02 04:35:16;;;;;;;3.58;1.35;;;;;;;9.79;61.76;98240.84;4256072;33;33876;-84
2023/04/02 04:37:48;;;;;;;2.47;1.30;;;;;;;9.78;61.90;98243.47;4256054;33;34711;-86
2023/04/02 04:40:22;;;;;;;3.58;1.52;;;;;;;9.59;62.58;98256.37;4271136;33;33900;-83
2023/04/02 04:42:54;;;;;;;2.37;1.58;;;;;;;9.34;63.82;98257.16;4270799;33;33115;-85
2023/04/02 04:45:44;;;;;;;2.20;1.30;;;;;;;9.81;62.35;98261.56;4246935;33;33490;-86
2023/04/02 04:48:20;;;;;;;11.65;5.18;;;;;;;9.89;62.44;98262.44;4256054;33;34042;-85
2023/04/02 04:50:53;;;;;;;4.33;2.57;;;;;;;9.82;63.25;98260.72;4252263;33;33487;-86
2023/04/02 04:53:25;;;;;;;5.47;2.37;;;;;;;10.27;62.83;98256.44;4260241;33;33243;-85
2023/04/02 04:56:01;;;;;;;4.32;2.20;;;;;;;10.41;62.69;98247.78;4252220;33;33767;-85
2023/04/02 04:58:50;;;;;;;5.10;2.30;;;;;;;11.22;61.94;98248.41;4260296;33;33981;-84
2023/04/02 05:01:21;;;;;;;4.00;2.10;;;;;;;11.50;60.23;98247.41;4247071;33;34448;-85
2023/04/02 05:04:26;;;;;;;3.03;1.60;;;;;;;11.76;59.02;98249.84;4263473;33;34461;-85
2023/04/02 05:07:01;;;;;;;2.72;1.50;;;;;;;12.09;58.29;98243.56;4273605;33;33414;-85
2023/04/02 05:09:51;;;;;;;4.32;2.10;;;;;;;12.60;57.55;98251.75;4249969;33;34015;-84
2023/04/02 05:12:42;;;;;;;3.85;1.92;;;;;;;12.98;57.36;98253.06;4251701;33;34312;-85
2023/04/02 05:15:19;;;;;;;3.33;1.40;;;;;;;12.40;56.39;98251.94;4255787;33;33476;-83
2023/04/02 05:17:56;;;;;;;3.37;1.80;;;;;;;12.72;55.35;98249.91;4248844;33;33655;-85
2023/04/02 05:20:25;;;;;;;3.42;1.65;;;;;;;12.12;57.22;98259.12;4259887;33;32880;-83
2023/04/02 05:23:15;;;;;;;2.47;1.55;;;;;;;12.22;57.37;98259.03;4273254;33;34231;-84
2023/04/02 05:26:12;;;;;;;2.55;1.58;;;;;;;12.82;55.26;98257.59;4259288;33;33740;-85
2023/04/02 05:29:10;;;;;;;2.80;1.60;;;;;;;12.62;55.52;98255.22;4254254;33;33605;-84
2023/04/02 05:31:41;;;;;;;3.62;1.55;;;;;;;12.08;57.23;98257.41;4268692;33;34047;-83
2023/04/02 05:34:10;;;;;;;2.62;1.58;;;;;;;11.66;58.64;98268.94;4266267;33;34831;-83
2023/04/02 05:36:38;;;;;;;2.78;1.70;;;;;;;11.63;59.38;98266.34;4258894;33;33560;-85
2023/04/02 05:39:10;;;;;;;3.35;1.52;;;;;;;11.79;58.71;98264.53;4288040;33;34697;-84
2023/04/02 05:41:41;;;;;;;3.53;1.48;;;;;;;11.61;59.21;98268.97;4269604;33;33907;-84
2023/04/02 05:44:21;;;;;;;3.25;2.00;;;;;;;11.35;60.13;98263.91;4257835;33;34258;-85
2023/04/02 05:46:56;;;;;;;3.72;1.60;;;;;;;11.47;59.90;98277.69;4259321;33;33859;-83
2023/04/02 05:49:40;;;;;;;3.45;1.60;;;;;;;11.40;60.38;98276.84;4246468;33;33764;-83
2023/04/02 05:52:15;;;;;;;4.12;1.70;;;;;;;11.75;59.41;98278.41;4259014;33;34942;-86
2023/04/02 05:54:47;;;;;;;3.35;1.85;;;;;;;11.75;59.14;98283.63;4257883;33;34657;-85
2023/04/02 05:57:23;;;;;;;2.85;1.73;;;;;;;11.69;59.21;98289.69;4258578;33;33734;-83
2023/04/02 06:00:24;;;;;;;3.83;1.65;;;;;;;11.57;60.29;98284.56;4249022;33;34635;-83
2023/04/02 06:03:06;;;;;;;2.37;1.48;;;;;;;11.55;60.30;98287.16;4253346;33;34026;-83
2023/04/02 06:05:39;;;;;;;2.92;1.55;;;;;;;11.36;61.62;98277.75;4258288;33;34168;-83
2023/04/02 06:08:12;;;;;;;2.83;1.67;;;;;;;11.54;60.66;98285.44;4257538;33;33466;-82
2023/04/02 06:10:53;;;;;;;2.37;1.60;;;;;;;11.37;61.35;98287.28;4782584;28;33942;-85
2023/04/02 06:13:22;;;;;;;3.65;1.80;;;;;;;11.67;60.63;98286.25;4265681;33;33647;-85
2023/04/02 06:15:50;;;;;;;3.42;1.65;;;;;;;11.86;59.04;98287.03;4247692;33;33967;-83
2023/04/02 06:18:32;;;;;;;2.55;1.62;;;;;;;11.60;59.78;98292.34;4271154;33;33326;-84
2023/04/02 06:21:01;;;;;;;4.10;1.80;;;;;;;11.80;59.03;98295.69;4258288;33;33899;-85
2023/04/02 06:23:37;;;;;;;2.62;1.67;;;;;;;11.61;60.06;98297.53;4259324;33;34972;-85
2023/04/02 06:26:30;;;;;;;2.35;1.33;;;;;;;11.57;60.55;98301.00;4259199;33;34335;-85
2023/04/02 06:29:16;;;;;;;3.15;1.90;;;;;;;11.86;59.56;98297.44;4271569;33;34428;-84
2023/04/02 06:31:51;;;;;;;3.55;1.80;;;;;;;11.94;59.20;98306.03;4258946;33;33716;-85
2023/04/02 06:34:22;;;;;;;3.03;1.75;;;;;;;11.88;59.50;98309.50;4259705;33;33749;-83
2023/04/02 06:36:54;;;;;;;2.70;1.60;;;;;;;11.55;60.99;98305.31;4246482;33;34287;-84
2023/04/02 06:39:24;;;;;;;3.28;2.12;;;;;;;11.82;60.77;98311.25;4255992;33;34607;-84
2023/04/02 06:42:00;;;;;;;3.00;1.90;;;;;;;11.97;60.58;98312.91;4269400;33;33944;-84
2023/04/02 06:44:37;;;;;;;3.35;1.95;;;;;;;12.11;59.60;98311.94;4268178;33;34930;-84
2023/04/02 06:47:08;;;;;;;3.53;1.70;;;;;;;11.81;60.40;98314.72;4270720;33;34138;-86
2023/04/02 06:49:50;;;;;;;4.78;2.12;;;;;;;11.98;60.01;98319.84;4260691;33;33033;-83
2023/04/02 06:52:35;;;;;;;4.37;2.30;;;;;;;12.03;59.97;98315.47;4258887;33;35107;-87
2023/04/02 06:55:16;;;;;;;3.50;2.17;;;;;;;12.17;59.20;98313.66;4255792;33;33685;-84
2023/04/02 06:57:44;;;;;;;3.35;1.80;;;;;;;11.94;61.23;98319.00;4255845;33;33717;-83
2023/04/02 07:00:37;;;;;;;4.35;2.40;;;;;;;11.73;60.97;98319.09;4263207;33;34196;-84
2023/04/02 07:03:26;;;;;;;6.03;2.05;;;;;;;11.72;61.93;98312.19;4265368;33;33875;-83
2023/04/02 07:05:55;;;;;;;3.87;2.22;;;;;;;12.38;60.28;98312.62;4262175;33;34960;-84
2023/04/02 07:08:23;;;;;;;4.65;2.25;;;;;;;12.17;61.11;98314.50;4256653;33;34505;-84
2023/04/02 07:10:53;;;;;;;4.15;2.50;;;;;;;12.39;60.78;98323.03;4257658;33;33044;-84
2023/04/02 07:13:24;;;;;;;4.28;2.15;;;;;;;12.25;60.73;98321.41;4261648;33;34724;-85
2023/04/02 07:15:53;;;;;;;3.33;1.87;;;;;;;11.85;61.52;98319.06;4270987;33;34171;-84
2023/04/02 07:18:21;;;;;;;3.55;1.90;;;;;;;11.99;60.51;98329.38;4256209;33;34925;-84
2023/04/02 07:20:49;;;;;;;3.92;2.08;;;;;;;12.18;60.04;98324.03;4269322;33;34327;-83
2023/04/02 07:23:19;;;;;;;3.55;2.10;;;;;;;12.31;59.21;98321.34;4258063;33;34103;-82
2023/04/02 07:25:49;;;;;;;3.42;1.87;;;;;;;11.92;60.50;98333.72;4257019;33;34159;-84
2023/04/02 07:28:16;;;;;;;4.32;2.12;;;;;;;12.21;59.44;98332.69;4252055;33;34842;-83
2023/04/02 07:30:46;;;;;;;3.30;2.08;;;;;;;12.53;59.04;98335.03;4266968;33;33820;-83
2023/04/02 07:33:15;;;;;;;4.25;2.20;;;;;;;12.50;58.97;98322.03;4272692;33;33837;-83
2023/04/02 07:35:43;;;;;;;4.20;2.37;;;;;;;12.35;59.94;98341.22;4269982;33;34225;-83
2023/04/02 07:38:11;;;;;;;4.43;2.28;;;;;;;12.48;60.04;98345.47;4269658;33;34081;-84
2023/04/02 07:40:38;;;;;;;4.93;2.55;;;;;;;12.57;59.46;98350.56;4266229;33;33711;-83
2023/04/02 07:43:06;;;;;;;3.75;2.12;;;;;;;12.91;57.95;98337.28;4263040;33;34742;-82
2023/04/02 07:45:34;;;;;;;4.72;2.20;;;;;;;12.56;58.70;98341.06;4252447;33;33735;-84
2023/04/02 07:48:06;;;;;;;4.05;2.40;;;;;;;12.90;58.39;98341.63;4256306;33;33499;-83
2023/04/02 07:50:34;;;;;;;3.67;2.45;;;;;;;12.18;59.62;98343.97;4250783;33;33645;-85
2023/04/02 07:53:02;;;;;;;3.92;2.37;;;;;;;12.58;59.75;98351.47;4266966;33;34354;-83
2023/04/02 07:55:30;;;;;;;5.10;2.85;;;;;;;12.32;60.41;98355.13;4256444;33;34075;-82
2023/04/02 07:57:58;;;;;;;4.90;2.22;;;;;;;12.55;59.27;98354.94;4256027;33;35162;-83
2023/04/02 08:00:27;;;;;;;4.32;2.35;;;;;;;12.54;59.29;98358.44;4262955;33;34464;-84
2023/04/02 08:02:55;;;;;;;3.78;2.22;;;;;;;12.29;60.28;98355.16;4265140;33;34787;-83
2023/04/02 08:05:23;;;;;;;4.55;2.50;;;;;;;12.93;58.91;98343.34;4265070;33;33694;-84
2023/04/02 08:07:53;;;;;;;5.50;2.80;;;;;;;12.75;59.34;98359.97;4253604;33;33824;-83
2023/04/02 08:10:22;;;;;;;3.58;2.53;;;;;;;12.54;59.79;98355.81;4266974;33;33335;-83
2023/04/02 08:12:50;;;;;;;4.75;2.35;;;;;;;13.06;59.03;98365.72;4258508;33;33986;-86
2023/04/02 08:15:17;;;;;;;4.30;2.53;;;;;;;12.89;59.16;98372.88;4258746;33;33839;-85
2023/04/02 08:17:46;;;;;;;4.97;2.37;;;;;;;12.71;59.26;98373.03;4268814;33;34068;-84
2023/04/02 08:20:16;;;;;;;4.47;2.90;;;;;;;13.08;57.81;98369.19;4259127;33;33754;-86
2023/04/02 08:22:45;;;;;;;4.37;2.60;;;;;;;12.78;59.83;98380.75;4259491;33;33718;-84
2023/04/02 08:25:13;;;;;;;4.28;2.75;;;;;;;12.82;59.82;98376.38;4260252;33;34053;-85
2023/04/02 08:27:41;;;;;;;4.30;2.40;;;;;;;12.88;58.66;98381.56;4267985;33;34174;-85
2023/04/02 08:30:11;;;;;;;5.12;2.58;;;;;;;13.07;58.08;98385.69;4272010;33;35084;-83
2023/04/02 08:32:40;;;;;;;5.93;2.62;;;;;;;12.99;58.12;98379.69;4257921;33;33972;-83
2023/04/02 08:35:09;;;;;;;4.07;2.90;;;;;;;12.91;58.31;98384.09;4271845;33;34068;-85
2023/04/02 08:37:37;;;;;;;5.32;3.10;;;;;;;13.12;58.46;98380.44;4262501;33;34409;-84
2023/04/02 08:40:08;;;;;;;5.68;3.28;;;;;;;12.95;58.74;98380.59;4265531;33;33472;-84
2023/04/02 08:42:51;;;;;;;4.57;2.83;;;;;;;13.24;58.70;98393.34;4261013;33;33727;-85
2023/04/02 08:45:23;;;;;;;5.37;2.90;;;;;;;13.32;56.89;98393.28;4268214;33;33809;-83
2023/04/02 08:47:55;;;;;;;5.05;3.08;;;;;;;13.44;57.32;98381.84;4257915;33;34275;-83
2023/04/02 08:50:35;;;;;;;6.32;3.10;;;;;;;12.91;58.74;98397.97;4247502;33;34681;-84
2023/04/02 08:53:11;;;;;;;6.25;4.47;;;;;;;13.51;56.60;98400.00;4255515;33;33966;-85
2023/04/02 08:56:16;;;;;;;3.90;2.60;;;;;;;13.62;56.55;98398.13;4246792;33;34187;-85
2023/04/02 08:58:49;;;;;;;4.57;2.85;;;;;;;13.57;57.64;98405.16;4257682;33;34132;-83
2023/04/02 09:01:34;;;;;;;4.30;2.47;;;;;;;14.24;54.73;98407.75;4252034;33;34232;-83
2023/04/02 09:04:05;;;;;;;5.22;2.53;;;;;;;14.19;55.60;98404.38;4264488;33;33538;-84
2023/04/02 09:06:32;;;;;;;4.70;2.75;;;;;;;14.44;55.13;98404.88;4260171;33;34281;-84
2023/04/02 09:09:00;;;;;;;4.57;3.00;;;;;;;13.81;56.44;98409.19;4267488;33;34976;-84
2023/04/02 09:11:47;;;;;;;4.62;3.08;;;;;;;13.86;56.36;98417.84;4251699;33;34134;-83
2023/04/02 09:14:35;;;;;;;4.32;2.70;;;;;;;13.73;56.95;98415.37;4267186;33;33790;-83
2023/04/02 09:17:15;;;;;;;4.30;2.53;;;;;;;13.61;57.78;98411.19;4255498;33;34026;-84
2023/04/02 09:19:50;;;;;;;4.50;2.62;;;;;;;13.48;57.99;98410.44;4250242;33;34007;-84
2023/04/02 09:22:24;;;;;;;4.50;2.62;;;;;;;14.12;56.09;98409.66;4259122;33;34542;-84
2023/04/02 09:24:56;;;;;;;4.53;2.58;;;;;;;13.82;57.17;98404.84;4262188;33;33630;-84
2023/04/02 09:27:28;;;;;;;5.18;2.92;;;;;;;14.11;55.71;98418.38;4260739;33;34751;-84
2023/04/02 09:30:13;;;;;;;3.75;2.40;;;;;;;13.97;56.83;98416.81;4264990;33;34088;-84
2023/04/02 09:32:47;;;;;;;4.10;2.70;;;;;;;14.34;54.56;98419.78;4265956;33;33825;-84
2023/04/02 09:35:17;;;;;;;4.35;2.50;;;;;;;14.08;56.27;98423.63;4258828;33;33658;-83
2023/04/02 09:38:29;;;;;;;4.57;2.78;;;;;;;14.34;54.78;98420.66;4271203;33;34972;-82
2023/04/02 09:40:57;;;;;;;4.80;2.62;;;;;;;14.18;55.87;98426.13;4266319;33;34279;-83
2023/04/02 09:43:36;;;;;;;4.43;2.40;;;;;;;14.15;56.18;98427.00;4269929;33;33354;-83
2023/04/02 09:46:05;;;;;;;3.67;2.42;;;;;;;14.65;54.52;98432.41;4254394;33;33745;-83
2023/04/02 09:48:35;;;;;;;3.45;2.12;;;;;;;14.55;53.66;98435.16;4269659;33;34002;-85
2023/04/02 09:51:21;;;;;;;4.10;2.42;;;;;;;14.29;55.53;98437.25;4259430;33;34091;-84
2023/04/02 09:54:05;;;;;;;5.18;2.80;;;;;;;14.12;55.71;98442.69;4254899;33;33750;-85
2023/04/02 09:56:37;;;;;;;4.20;2.47;;;;;;;14.03;56.37;98435.84;4267919;33;34297;-84
2023/04/02 09:59:06;;;;;;;4.22;2.55;;;;;;;14.19;55.68;98443.47;4256086;33;33814;-84
2023/04/02 10:01:37;;;;;;;4.30;2.65;;;;;;;13.93;55.95;98444.66;4271933;33;34193;-84
2023/04/02 10:04:45;;;;;;;4.32;2.97;;;;;;;13.91;56.57;98446.44;4272902;33;34386;-84
2023/04/02 10:07:45;;;;;;;4.60;2.97;;;;;;;13.73;57.28;98439.69;4257398;33;33432;-84
2023/04/02 10:10:29;;;;;;;6.60;2.67;;;;;;;13.90;57.02;98449.91;4259694;33;33849;-84
2023/04/02 10:12:59;;;;;;;4.78;2.97;;;;;;;13.74;58.15;98444.00;4258741;33;33954;-84
2023/04/02 10:15:50;;;;;;;5.55;2.95;;;;;;;14.15;55.35;98442.66;4258985;33;34382;-82
2023/04/02 10:18:33;;;;;;;4.80;2.85;;;;;;;13.29;58.34;98440.16;4260035;33;33544;-85
2023/04/02 10:21:02;;;;;;;5.03;2.97;;;;;;;13.96;56.90;98435.94;4259972;33;33603;-85
2023/04/02 10:23:30;;;;;;;9.93;5.93;;;;;;;14.33;55.71;98433.72;4257989;33;34184;-83
2023/04/02 10:26:05;;;;;;;9.27;4.72;;;;;;;14.14;56.27;98437.47;4257060;33;33393;-85
2023/04/02 10:29:01;;;;;;;7.35;3.47;;;;;;;13.95;57.66;98435.09;4258932;33;34965;-85
2023/04/02 10:31:47;;;;;;;7.05;3.00;;;;;;;14.20;57.49;98432.16;4241951;33;34828;-85
2023/04/02 10:34:41;;;;;;;5.18;3.62;;;;;;;14.64;55.02;98433.31;4246093;33;34240;-85
2023/04/02 10:37:34;;;;;;;4.65;3.20;;;;;;;14.70;54.91;98433.19;4262900;33;33758;-85
2023/04/02 10:40:16;;;;;;;5.00;3.33;;;;;;;14.41;55.43;98437.06;4265119;33;33754;-83
2023/04/02 10:43:02;;;;;;;4.90;3.22;;;;;;;14.71;54.75;98432.31;4266385;33;34893;-85
2023/04/02 10:45:50;;;;;;;6.10;3.40;;;;;;;14.74;54.63;98429.69;4272573;33;34797;-84
2023/04/02 10:48:17;;;;;;;4.57;2.90;;;;;;;14.52;54.86;98426.53;4259544;33;34067;-84
2023/04/02 10:51:06;;;;;;;5.03;3.50;;;;;;;15.16;53.00;98428.09;4272176;33;34770;-86
2023/04/02 10:54:06;;;;;;;13.43;9.18;;;;;;;14.85;54.02;98422.53;4239281;33;33204;-84
2023/04/02 10:56:35;;;;;;;6.22;3.78;;;;;;;15.17;54.19;98428.94;4258678;33;33036;-84
2023/04/02 10:59:20;;;;;;;5.35;3.75;;;;;;;15.80;52.15;98415.59;4256606;33;33732;-84
2023/04/02 11:01:50;;;;;;;4.55;3.03;;;;;;;15.83;52.45;98410.28;4241829;33;32405;-84
2023/04/02 11:04:22;;;;;;;4.53;2.87;;;;;;;16.48;50.15;98409.78;4249481;33;33706;-85
2023/04/02 11:06:54;;;;;;;5.97;2.60;;;;;;;16.19;50.79;98415.66;4258325;33;34045;-78
2023/04/02 11:09:41;;;;;;;4.82;2.37;;;;;;;16.74;49.19;98412.66;4256472;33;33697;-84
2023/04/02 11:12:26;;;;;;;4.28;2.20;;;;;;;16.34;50.25;98412.69;4245237;33;34100;-83
2023/04/02 11:14:54;;;;;;;5.90;3.12;;;;;;;15.88;50.29;98412.84;4248798;33;34321;-84
2023/04/02 11:17:23;;;;;;;14.52;9.02;;;;;;;16.18;49.73;98416.56;4245649;33;34272;-84
2023/04/02 11:19:51;;;;;;;13.55;10.23;;;;;;;15.92;49.39;98406.66;4246314;33;34474;-84
2023/04/02 11:22:22;;;;;;;4.40;2.78;;;;;;;15.37;51.31;98419.00;4259709;33;34650;-86
2023/04/02 11:24:52;;;;;;;4.57;2.92;;;;;;;15.60;50.90;98413.34;4272242;33;35099;-86
2023/04/02 11:27:40;;;;;;;4.10;2.55;;;;;;;15.52;52.14;98423.94;4258181;33;34974;-85
2023/04/02 11:30:14;;;;;;;5.72;3.05;;;;;;;14.79;53.88;98426.09;4246354;33;33450;-83
2023/04/02 11:32:44;;;;;;;4.70;3.12;;;;;;;15.67;52.16;98408.87;4260657;33;33778;-85
2023/04/02 11:35:30;;;;;;;4.97;2.70;;;;;;;15.57;51.90;98403.81;4259821;33;35150;-83
2023/04/02 11:38:03;;;;;;;5.50;2.65;;;;;;;15.55;52.12;98399.50;4272790;33;34210;-85
2023/04/02 11:40:43;;;;;;;3.70;2.25;;;;;;;15.96;51.31;98403.06;4271257;33;33399;-86
2023/04/02 11:43:34;;;;;;;4.28;2.58;;;;;;;15.74;52.29;98402.66;4246257;33;34053;-86
2023/04/02 11:46:27;;;;;;;6.00;2.80;;;;;;;15.63;51.66;98391.50;4262224;33;35123;-84
2023/04/02 11:49:38;;;;;;;4.72;2.78;;;;;;;15.97;50.54;98403.03;4270707;33;34355;-84
2023/04/02 11:52:22;;;;;;;4.90;2.45;;;;;;;15.96;50.72;98405.69;4248000;33;34479;-83
2023/04/02 11:55:13;;;;;;;4.82;2.45;;;;;;;15.85;50.88;98405.91;4270873;33;33944;-85
2023/04/02 11:58:04;;;;;;;4.78;2.80;;;;;;;15.97;51.23;98410.88;4272340;33;34957;-85
2023/04/02 12:00:53;;;;;;;3.70;2.50;;;;;;;15.98;50.39;98399.50;4268683;33;33088;-85
2023/04/02 12:03:42;;;;;;;4.43;2.40;;;;;;;16.10;50.71;98387.06;4259179;33;33419;-85
2023/04/02 12:06:41;;;;;;;4.00;2.20;;;;;;;16.27;49.02;98396.28;4267798;33;33582;-85
2023/04/02 12:09:35;;;;;;;4.62;2.30;;;;;;;15.93;50.23;98396.16;4256922;33;34188;-85
2023/04/02 12:12:17;;;;;;;4.55;2.47;;;;;;;16.54;48.51;98392.16;4245122;33;34549;-87
2023/04/02 12:14:59;;;;;;;3.95;2.40;;;;;;;16.47;48.15;98393.19;4246229;33;33824;-85
2023/04/02 12:17:29;;;;;;;4.35;2.40;;;;;;;16.09;48.97;98393.19;4262685;33;34704;-86
2023/04/02 12:20:12;;;;;;;4.93;2.70;;;;;;;16.44;48.73;98400.25;4257940;33;34188;-84